sensor_id;sensor_type;location;lat;lon;timestamp;pressure;altitude;pressure_sealevel;temperature;humidity
2397;BME280;1209;48.410;9.054;2023-05-24T00:00:38;96484.03;;;13.84;100.00
2397;BME280;1209;48.410;9.054;2023-05-24T00:03:05;96479.66;;;13.92;100.00
2397;BME280;1209;48.410;9.054;2023-05-24T00:05:31;96471.84;;;13.77;100.00
2397;BME280;1209;48.410;9.054;2023-05-24T00:07:56;96470.72;;;13.65;100.00
2397;BME280;1209;48.410;9.054;2023-05-24T00:10:23;96474.59;;;13.69;100.00
2397;BME280;1209;48.410;9.054;2023-05-24T00:12:48;96474.25;;;13.72;100.00
2397;BME280;1209;48.410;9.054;2023-05-24T00:15:13;96479.16;;;13.81;100.00
2397;BME280;1209;48.410;9.054;2023-05-24T00:17:39;96469.66;;;13.80;100.00
2397;BME280;1209;48.410;9.054;2023-05-24T00:20:10;96471.84;;;13.77;100.00
2397;BME280;1209;48.410;9.054;2023-05-24T00:22:39;96476.34;;;13.83;100.00
2397;BME280;1209;48.410;9.054;2023-05-24T00:25:05;96473.06;;;13.74;100.00
2397;BME280;1209;48.410;9.054;2023-05-24T00:27:32;96476.34;;;13.83;100.00
2397;BME280;1209;48.410;9.054;2023-05-24T00:29:57;96472.53;;;13.43;100.00
2397;BME280;1209;48.410;9.054;2023-05-24T00:32:23;96473.41;;;13.71;100.00
2397;BME280;1209;48.410;9.054;2023-05-24T00:34:48;96467.28;;;13.64;100.00
2397;BME280;1209;48.410;9.054;2023-05-24T00:37:13;96463.59;;;13.80;100.00
2397;BME280;1209;48.410;9.054;2023-05-24T00:39:39;96468.47;;;13.62;100.00
2397;BME280;1209;48.410;9.054;2023-05-24T00:42:05;96454.34;;;13.63;100.00
2397;BME280;1209;48.410;9.054;2023-05-24T00:44:30;96467.59;;;13.54;100.00
2397;BME280;1209;48.410;9.054;2023-05-24T00:46:56;96466.28;;;13.44;100.00
2397;BME280;1209;48.410;9.054;2023-05-24T00:49:22;96469.78;;;13.30;100.00
2397;BME280;1209;48.410;9.054;2023-05-24T00:51:48;96466.66;;;13.41;100.00
2397;BME280;1209;48.410;9.054;2023-05-24T00:54:13;96469.78;;;13.30;100.00
2397;BME280;1209;48.410;9.054;2023-05-24T00:56:40;96466.16;;;13.31;100.00
2397;BME280;1209;48.410;9.054;2023-05-24T00:59:06;96464.16;;;13.33;100.00
2397;BME280;1209;48.410;9.054;2023-05-24T01:01:32;96469.78;;;13.30;100.00
2397;BME280;1209;48.410;9.054;2023-05-24T01:03:57;96469.53;;;13.46;100.00
2397;BME280;1209;48.410;9.054;2023-05-24T01:06:24;96466.47;;;13.42;100.00
2397;BME280;1209;48.410;9.054;2023-05-24T01:11:34;96466.91;;;13.25;100.00
2397;BME280;1209;48.410;9.054;2023-05-24T01:14:11;96473.78;;;13.26;100.00
2397;BME280;1209;48.410;9.054;2023-05-24T01:19:48;96470.06;;;13.20;100.00
2397;BME280;1209;48.410;9.054;2023-05-24T01:22:33;96476.84;;;13.29;100.00
2397;BME280;1209;48.410;9.054;2023-05-24T01:25:03;96483.22;;;13.41;100.00
2397;BME280;1209;48.410;9.054;2023-05-24T01:27:35;96483.59;;;13.38;100.00
2397;BME280;1209;48.410;9.054;2023-05-24T01:30:02;96474.22;;;13.14;100.00
2397;BME280;1209;48.410;9.054;2023-05-24T01:32:28;96481.38;;;13.20;100.00
2397;BME280;1209;48.410;9.054;2023-05-24T01:34:54;96473.66;;;13.34;100.00
2397;BME280;1209;48.410;9.054;2023-05-24T01:37:19;96473.34;;;13.43;100.00
2397;BME280;1209;48.410;9.054;2023-05-24T01:39:45;96472.28;;;13.38;100.00
2397;BME280;1209;48.410;9.054;2023-05-24T01:48:27;96464.44;;;13.23;100.00
2397;BME280;1209;48.410;9.054;2023-05-24T01:50:57;96460.03;;;13.23;100.00
2397;BME280;1209;48.410;9.054;2023-05-24T01:53:25;96465.41;;;13.37;100.00
2397;BME280;1209;48.410;9.054;2023-05-24T01:55:57;96465.63;;;13.35;100.00
2397;BME280;1209;48.410;9.054;2023-05-24T01:58:25;96468.97;;;13.50;100.00
2397;BME280;1209;48.410;9.054;2023-05-24T02:00:52;96464.28;;;13.46;100.00
2397;BME280;1209;48.410;9.054;2023-05-24T02:03:18;96464.34;;;13.16;100.00
2397;BME280;1209;48.410;9.054;2023-05-24T02:05:44;96462.38;;;13.33;100.00
2397;BME280;1209;48.410;9.054;2023-05-24T02:08:09;96469.97;;;13.13;100.00
2397;BME280;1209;48.410;9.054;2023-05-24T02:10:36;96464.19;;;13.18;100.00
2397;BME280;1209;48.410;9.054;2023-05-24T02:13:07;96460.56;;;13.19;100.00
2397;BME280;1209;48.410;9.054;2023-05-24T02:15:33;96458.22;;;13.24;100.00
2397;BME280;1209;48.410;9.054;2023-05-24T02:17:59;96446.09;;;12.87;100.00
2397;BME280;1209;48.410;9.054;2023-05-24T02:20:26;96458.47;;;12.93;100.00
2397;BME280;1209;48.410;9.054;2023-05-24T02:22:55;96448.13;;;13.06;100.00
2397;BME280;1209;48.410;9.054;2023-05-24T02:25:20;96450.47;;;13.01;100.00
2397;BME280;1209;48.410;9.054;2023-05-24T02:27:46;96451.59;;;12.92;100.00
2397;BME280;1209;48.410;9.054;2023-05-24T02:30:12;96451.72;;;13.05;100.00
2397;BME280;1209;48.410;9.054;2023-05-24T02:32:37;96452.00;;;13.10;100.00
2397;BME280;1209;48.410;9.054;2023-05-24T02:35:03;96455.72;;;13.01;100.00
2397;BME280;1209;48.410;9.054;2023-05-24T02:37:28;96441.75;;;13.15;100.00
2397;BME280;1209;48.410;9.054;2023-05-24T02:39:54;96450.53;;;13.22;100.00
2397;BME280;1209;48.410;9.054;2023-05-24T02:42:19;96447.81;;;13.16;100.00
2397;BME280;1209;48.410;9.054;2023-05-24T02:44:44;96443.47;;;13.23;100.00
2397;BME280;1209;48.410;9.054;2023-05-24T02:47:14;96440.63;;;13.03;100.00
2397;BME280;1209;48.410;9.054;2023-05-24T02:49:39;96444.28;;;12.87;100.00
2397;BME280;1209;48.410;9.054;2023-05-24T02:52:05;96442.53;;;12.95;100.00
2397;BME280;1209;48.410;9.054;2023-05-24T02:54:30;96446.41;;;12.99;100.00
2397;BME280;1209;48.410;9.054;2023-05-24T02:56:56;96452.59;;;12.76;100.00
2397;BME280;1209;48.410;9.054;2023-05-24T02:59:22;96447.28;;;12.84;100.00
2397;BME280;1209;48.410;9.054;2023-05-24T03:01:48;96448.91;;;12.71;100.00
2397;BME280;1209;48.410;9.054;2023-05-24T03:04:13;96449.03;;;12.99;100.00
2397;BME280;1209;48.410;9.054;2023-05-24T03:06:38;96449.97;;;12.91;100.00
2397;BME280;1209;48.410;9.054;2023-05-24T03:09:04;96448.31;;;13.05;100.00
2397;BME280;1209;48.410;9.054;2023-05-24T03:11:29;96454.22;;;12.92;100.00
2397;BME280;1209;48.410;9.054;2023-05-24T03:13:55;96454.50;;;12.68;100.00
2397;BME280;1209;48.410;9.054;2023-05-24T03:16:20;96465.00;;;12.53;100.00
2397;BME280;1209;48.410;9.054;2023-05-24T03:18:45;96461.41;;;12.54;100.00
2397;BME280;1209;48.410;9.054;2023-05-24T03:21:11;96459.88;;;12.45;100.00
2397;BME280;1209;48.410;9.054;2023-05-24T03:23:36;96462.38;;;12.53;100.00
2397;BME280;1209;48.410;9.054;2023-05-24T03:26:01;96466.63;;;12.54;100.00
2397;BME280;1209;48.410;9.054;2023-05-24T03:28:26;96465.00;;;12.53;100.00
2397;BME280;1209;48.410;9.054;2023-05-24T03:30:52;96464.28;;;12.44;100.00
2397;BME280;1209;48.410;9.054;2023-05-24T03:33:18;96469.97;;;12.48;100.00
2397;BME280;1209;48.410;9.054;2023-05-24T03:35:43;96470.50;;;12.28;100.00
2397;BME280;1209;48.410;9.054;2023-05-24T03:38:08;96474.47;;;12.24;100.00
2397;BME280;1209;48.410;9.054;2023-05-24T03:40:34;96471.22;;;12.22;100.00
2397;BME280;1209;48.410;9.054;2023-05-24T03:43:00;96473.66;;;12.24;100.00
2397;BME280;1209;48.410;9.054;2023-05-24T03:45:26;96471.94;;;12.16;100.00
2397;BME280;1209;48.410;9.054;2023-05-24T03:47:51;96473.56;;;12.17;100.00
2397;BME280;1209;48.410;9.054;2023-05-24T03:50:16;96476.47;;;12.22;100.00
2397;BME280;1209;48.410;9.054;2023-05-24T03:52:42;96473.38;;;12.19;100.00
2397;BME280;1209;48.410;9.054;2023-05-24T03:55:07;96475.19;;;12.04;100.00
2397;BME280;1209;48.410;9.054;2023-05-24T03:57:33;96476.97;;;12.03;100.00
2397;BME280;1209;48.410;9.054;2023-05-24T03:59:58;96480.59;;;12.02;100.00
2397;BME280;1209;48.410;9.054;2023-05-24T04:02:24;96480.69;;;12.09;100.00
2397;BME280;1209;48.410;9.054;2023-05-24T04:04:49;96477.16;;;12.02;100.00
2397;BME280;1209;48.410;9.054;2023-05-24T04:07:15;96487.00;;;12.00;100.00
2397;BME280;1209;48.410;9.054;2023-05-24T04:09:41;96479.06;;;12.08;100.00
2397;BME280;1209;48.410;9.054;2023-05-24T04:12:06;96478.97;;;12.01;100.00
2397;BME280;1209;48.410;9.054;2023-05-24T04:14:32;96483.31;;;12.09;100.00
2397;BME280;1209;48.410;9.054;2023-05-24T04:16:57;96479.97;;;12.00;100.00
2397;BME280;1209;48.410;9.054;2023-05-24T04:19:22;96482.19;;;11.88;100.00
2397;BME280;1209;48.410;9.054;2023-05-24T04:21:48;96482.00;;;11.90;100.00
2397;BME280;1209;48.410;9.054;2023-05-24T04:24:14;96481.47;;;11.94;100.00
2397;BME280;1209;48.410;9.054;2023-05-24T04:26:40;96482.19;;;11.88;100.00
2397;BME280;1209;48.410;9.054;2023-05-24T04:29:05;96486.91;;;11.93;100.00
2397;BME280;1209;48.410;9.054;2023-05-24T04:31:31;96487.25;;;11.90;100.00
2397;BME280;1209;48.410;9.054;2023-05-24T04:33:58;96484.63;;;11.90;100.00
2397;BME280;1209;48.410;9.054;2023-05-24T04:36:24;96483.09;;;11.95;100.00
2397;BME280;1209;48.410;9.054;2023-05-24T04:38:50;96484.28;;;11.93;100.00
2397;BME280;1209;48.410;9.054;2023-05-24T04:41:18;96475.19;;;11.81;100.00
2397;BME280;1209;48.410;9.054;2023-05-24T04:43:43;96471.38;;;11.91;100.00
2397;BME280;1209;48.410;9.054;2023-05-24T04:46:09;96471.09;;;11.86;100.00
2397;BME280;1209;48.410;9.054;2023-05-24T04:48:35;96472.63;;;11.95;100.00
2397;BME280;1209;48.410;9.054;2023-05-24T04:51:00;96472.19;;;11.92;100.00
2397;BME280;1209;48.410;9.054;2023-05-24T04:53:25;96456.41;;;12.00;100.00
2397;BME280;1209;48.410;9.054;2023-05-24T04:55:51;96466.88;;;12.00;100.00
2397;BME280;1209;48.410;9.054;2023-05-24T04:58:17;96471.22;;;12.08;100.00
2397;BME280;1209;48.410;9.054;2023-05-24T05:00:43;96458.03;;;12.01;100.00
2397;BME280;1209;48.410;9.054;2023-05-24T05:03:09;96465.16;;;12.22;100.00
2397;BME280;1209;48.410;9.054;2023-05-24T05:05:34;96465.34;;;12.20;100.00
2397;BME280;1209;48.410;9.054;2023-05-24T05:08:00;96464.72;;;12.18;100.00
2397;BME280;1209;48.410;9.054;2023-05-24T05:10:26;96464.53;;;12.20;100.00
2397;BME280;1209;48.410;9.054;2023-05-24T05:12:52;96471.03;;;12.24;100.00
2397;BME280;1209;48.410;9.054;2023-05-24T05:15:19;96466.75;;;12.31;100.00
2397;BME280;1209;48.410;9.054;2023-05-24T05:17:45;96473.41;;;12.34;100.00
2397;BME280;1209;48.410;9.054;2023-05-24T05:20:10;96471.94;;;12.16;100.00
2397;BME280;1209;48.410;9.054;2023-05-24T05:22:35;96477.44;;;12.21;100.00
2397;BME280;1209;48.410;9.054;2023-05-24T05:25:01;96474.22;;;12.34;100.00
2397;BME280;1209;48.410;9.054;2023-05-24T05:27:26;96488.38;;;12.25;100.00
2397;BME280;1209;48.410;9.054;2023-05-24T05:29:51;96487.31;;;12.34;100.00
2397;BME280;1209;48.410;9.054;2023-05-24T05:32:17;96486.28;;;12.20;100.00
2397;BME280;1209;48.410;9.054;2023-05-24T05:34:42;96491.84;;;12.40;100.00
2397;BME280;1209;48.410;9.054;2023-05-24T05:37:08;96495.81;;;12.36;100.00
2397;BME280;1209;48.410;9.054;2023-05-24T05:39:34;96495.88;;;12.28;100.00
2397;BME280;1209;48.410;9.054;2023-05-24T05:42:00;96493.34;;;12.20;100.00
2397;BME280;1209;48.410;9.054;2023-05-24T05:44:26;96497.50;;;12.29;100.00
2397;BME280;1209;48.410;9.054;2023-05-24T05:46:52;96498.94;;;12.17;100.00
2397;BME280;1209;48.410;9.054;2023-05-24T05:49:17;96500.38;;;12.19;100.00
2397;BME280;1209;48.410;9.054;2023-05-24T05:51:44;96497.09;;;12.03;100.00
2397;BME280;1209;48.410;9.054;2023-05-24T05:54:09;96490.00;;;12.11;100.00
2397;BME280;1209;48.410;9.054;2023-05-24T05:56:39;96487.00;;;12.14;100.00
2397;BME280;1209;48.410;9.054;2023-05-24T05:59:10;96493.25;;;12.13;100.00
2397;BME280;1209;48.410;9.054;2023-05-24T06:01:36;96487.44;;;12.03;100.00
2397;BME280;1209;48.410;9.054;2023-05-24T06:04:01;96492.44;;;12.13;100.00
2397;BME280;1209;48.410;9.054;2023-05-24T06:06:27;96499.03;;;12.23;100.00
2397;BME280;1209;48.410;9.054;2023-05-24T06:08:52;96492.63;;;12.26;100.00
2397;BME280;1209;48.410;9.054;2023-05-24T06:11:17;96494.88;;;12.14;100.00
2397;BME280;1209;48.410;9.054;2023-05-24T06:13:43;96489.81;;;12.13;100.00
2397;BME280;1209;48.410;9.054;2023-05-24T06:16:08;96490.09;;;12.18;100.00
2397;BME280;1209;48.410;9.054;2023-05-24T06:18:34;96491.59;;;11.97;100.00
2397;BME280;1209;48.410;9.054;2023-05-24T06:21:00;96499.56;;;12.04;100.00
2397;BME280;1209;48.410;9.054;2023-05-24T06:23:25;96502.38;;;12.17;100.00
2397;BME280;1209;48.410;9.054;2023-05-24T06:25:51;96507.41;;;12.04;100.00
2397;BME280;1209;48.410;9.054;2023-05-24T06:28:16;96505.94;;;12.02;100.00
2397;BME280;1209;48.410;9.054;2023-05-24T06:30:41;96508.28;;;11.96;100.00
2397;BME280;1209;48.410;9.054;2023-05-24T06:33:07;96502.88;;;11.98;100.00
2397;BME280;1209;48.410;9.054;2023-05-24T06:35:32;96502.53;;;12.16;100.00
2397;BME280;1209;48.410;9.054;2023-05-24T06:37:57;96506.34;;;12.13;100.00
2397;BME280;1209;48.410;9.054;2023-05-24T06:40:23;96502.19;;;12.19;100.00
2397;BME280;1209;48.410;9.054;2023-05-24T06:42:48;96499.38;;;12.20;100.00
2397;BME280;1209;48.410;9.054;2023-05-24T06:45:13;96504.91;;;12.25;100.00
2397;BME280;1209;48.410;9.054;2023-05-24T06:47:39;96504.63;;;12.20;100.00
2397;BME280;1209;48.410;9.054;2023-05-24T06:50:05;96509.91;;;12.50;100.00
2397;BME280;1209;48.410;9.054;2023-05-24T06:52:31;96506.56;;;12.56;100.00
2397;BME280;1209;48.410;9.054;2023-05-24T06:54:56;96501.41;;;12.63;100.00
2397;BME280;1209;48.410;9.054;2023-05-24T06:57:21;96502.47;;;12.68;100.00
2397;BME280;1209;48.410;9.054;2023-05-24T06:59:47;96502.22;;;12.92;100.00
2397;BME280;1209;48.410;9.054;2023-05-24T07:02:12;96513.13;;;12.96;100.00
2397;BME280;1209;48.410;9.054;2023-05-24T07:04:37;96511.53;;;12.80;100.00
2397;BME280;1209;48.410;9.054;2023-05-24T07:07:06;96512.97;;;12.83;100.00
2397;BME280;1209;48.410;9.054;2023-05-24T07:09:33;96522.09;;;12.72;100.00
2397;BME280;1209;48.410;9.054;2023-05-24T07:11:58;96530.50;;;12.68;100.00
2397;BME280;1209;48.410;9.054;2023-05-24T07:14:23;96526.28;;;12.81;100.00
2397;BME280;1209;48.410;9.054;2023-05-24T07:16:51;96533.13;;;12.82;100.00
2397;BME280;1209;48.410;9.054;2023-05-24T07:19:19;96530.22;;;13.07;100.00
2397;BME280;1209;48.410;9.054;2023-05-24T07:21:46;96532.28;;;13.11;100.00
2397;BME280;1209;48.410;9.054;2023-05-24T07:24:11;96528.75;;;13.34;100.00
2397;BME280;1209;48.410;9.054;2023-05-24T07:26:36;96530.63;;;13.40;100.00
2397;BME280;1209;48.410;9.054;2023-05-24T07:29:02;96534.75;;;12.98;100.00
2397;BME280;1209;48.410;9.054;2023-05-24T07:31:28;96533.72;;;13.14;100.00
2397;BME280;1209;48.410;9.054;2023-05-24T07:33:55;96530.84;;;13.09;100.00
2397;BME280;1209;48.410;9.054;2023-05-24T07:36:20;96536.88;;;13.24;100.00
2397;BME280;1209;48.410;9.054;2023-05-24T07:38:46;96538.78;;;13.15;100.00
2397;BME280;1209;48.410;9.054;2023-05-24T07:41:12;96534.44;;;13.08;100.00
2397;BME280;1209;48.410;9.054;2023-05-24T07:43:38;96533.38;;;13.32;100.00
2397;BME280;1209;48.410;9.054;2023-05-24T07:46:03;96529.00;;;13.39;100.00
2397;BME280;1209;48.410;9.054;2023-05-24T07:48:29;96532.75;;;13.30;100.00
2397;BME280;1209;48.410;9.054;2023-05-24T07:50:54;96534.63;;;13.57;100.00
2397;BME280;1209;48.410;9.054;2023-05-24T07:53:19;96536.31;;;13.65;100.00
2397;BME280;1209;48.410;9.054;2023-05-24T07:55:46;96537.03;;;13.73;100.00
2397;BME280;1209;48.410;9.054;2023-05-24T07:58:12;96546.31;;;13.33;100.00
2397;BME280;1209;48.410;9.054;2023-05-24T08:00:37;96553.50;;;13.46;100.00
2397;BME280;1209;48.410;9.054;2023-05-24T08:03:05;96548.53;;;13.72;100.00
2397;BME280;1209;48.410;9.054;2023-05-24T08:05:30;96550.50;;;13.70;100.00
2397;BME280;1209;48.410;9.054;2023-05-24T08:07:56;96557.88;;;13.39;100.00
2397;BME280;1209;48.410;9.054;2023-05-24T08:10:21;96554.75;;;13.50;100.00
2397;BME280;1209;48.410;9.054;2023-05-24T08:12:47;96557.03;;;13.74;100.00
2397;BME280;1209;48.410;9.054;2023-05-24T08:15:15;96557.56;;;13.70;100.00
2397;BME280;1209;48.410;9.054;2023-05-24T08:17:41;96569.69;;;13.49;100.00
2397;BME280;1209;48.410;9.054;2023-05-24T08:20:07;96571.75;;;13.54;100.00
2397;BME280;1209;48.410;9.054;2023-05-24T08:22:33;96562.94;;;13.62;100.00
2397;BME280;1209;48.410;9.054;2023-05-24T08:24:59;96567.63;;;13.45;100.00
2397;BME280;1209;48.410;9.054;2023-05-24T08:27:24;96570.69;;;13.70;100.00
2397;BME280;1209;48.410;9.054;2023-05-24T08:29:52;96570.25;;;13.66;100.00
2397;BME280;1209;48.410;9.054;2023-05-24T08:32:18;96576.22;;;13.39;100.00
2397;BME280;1209;48.410;9.054;2023-05-24T08:34:43;96575.66;;;13.43;100.00
2397;BME280;1209;48.410;9.054;2023-05-24T08:37:09;96580.84;;;13.22;100.00
2397;BME280;1209;48.410;9.054;2023-05-24T08:39:35;96582.72;;;13.43;100.00
2397;BME280;1209;48.410;9.054;2023-05-24T08:42:01;96579.22;;;13.36;100.00
2397;BME280;1209;48.410;9.054;2023-05-24T08:44:27;96575.16;;;13.33;100.00
2397;BME280;1209;48.410;9.054;2023-05-24T08:46:54;96574.72;;;13.30;100.00
2397;BME280;1209;48.410;9.054;2023-05-24T08:49:20;96572.72;;;13.02;100.00
2397;BME280;1209;48.410;9.054;2023-05-24T08:51:46;96576.78;;;13.05;100.00
2397;BME280;1209;48.410;9.054;2023-05-24T08:54:12;96580.91;;;13.14;100.00
2397;BME280;1209;48.410;9.054;2023-05-24T08:56:39;96580.50;;;13.25;100.00
2397;BME280;1209;48.410;9.054;2023-05-24T08:59:06;96586.19;;;12.99;100.00
2397;BME280;1209;48.410;9.054;2023-05-24T09:01:31;96588.88;;;13.06;100.00
2397;BME280;1209;48.410;9.054;2023-05-24T09:03:58;96584.09;;;13.09;100.00
2397;BME280;1209;48.410;9.054;2023-05-24T09:06:24;96591.88;;;12.88;100.00
2397;BME280;1209;48.410;9.054;2023-05-24T09:08:51;96593.16;;;12.92;100.00
2397;BME280;1209;48.410;9.054;2023-05-24T09:11:18;96587.72;;;13.08;100.00
2397;BME280;1209;48.410;9.054;2023-05-24T09:13:44;96593.22;;;13.13;100.00
2397;BME280;1209;48.410;9.054;2023-05-24T09:16:09;96582.09;;;13.11;100.00
2397;BME280;1209;48.410;9.054;2023-05-24T09:18:35;96591.59;;;13.12;100.00
2397;BME280;1209;48.410;9.054;2023-05-24T09:21:00;96589.97;;;13.11;100.00
2397;BME280;1209;48.410;9.054;2023-05-24T09:23:26;96586.91;;;13.22;100.00
2397;BME280;1209;48.410;9.054;2023-05-24T09:25:52;96593.16;;;13.21;100.00
2397;BME280;1209;48.410;9.054;2023-05-24T09:28:18;96590.72;;;13.20;100.00
2397;BME280;1209;48.410;9.054;2023-05-24T09:30:56;96595.69;;;13.30;100.00
2397;BME280;1209;48.410;9.054;2023-05-24T09:33:22;96594.59;;;13.39;100.00
2397;BME280;1209;48.410;9.054;2023-05-24T09:35:47;96595.47;;;13.46;100.00
2397;BME280;1209;48.410;9.054;2023-05-24T09:38:17;96591.06;;;13.17;100.00
2397;BME280;1209;48.410;9.054;2023-05-24T09:40:43;96592.69;;;13.18;100.00
2397;BME280;1209;48.410;9.054;2023-05-24T09:43:09;96594.88;;;13.65;100.00
2397;BME280;1209;48.410;9.054;2023-05-24T09:45:46;96583.44;;;13.51;100.00
2397;BME280;1209;48.410;9.054;2023-05-24T09:48:15;96582.63;;;13.51;100.00
2397;BME280;1209;48.410;9.054;2023-05-24T09:50:57;96582.47;;;13.74;100.00
2397;BME280;1209;48.410;9.054;2023-05-24T09:53:23;96578.41;;;13.93;100.00
2397;BME280;1209;48.410;9.054;2023-05-24T09:55:49;96576.91;;;14.26;100.00
2397;BME280;1209;48.410;9.054;2023-05-24T09:58:15;96578.72;;;14.26;100.00
2397;BME280;1209;48.410;9.054;2023-05-24T10:00:41;96576.66;;;13.78;100.00
2397;BME280;1209;48.410;9.054;2023-05-24T10:03:08;96581.34;;;14.04;100.00
2397;BME280;1209;48.410;9.054;2023-05-24T10:05:42;96576.66;;;14.00;100.00
2397;BME280;1209;48.410;9.054;2023-05-24T10:08:08;96580.09;;;14.00;100.00
2397;BME280;1209;48.410;9.054;2023-05-24T10:10:34;96588.78;;;14.01;100.00
2397;BME280;1209;48.410;9.054;2023-05-24T10:13:00;96582.53;;;14.23;100.00
2397;BME280;1209;48.410;9.054;2023-05-24T10:15:26;96581.97;;;14.49;100.00
2397;BME280;1209;48.410;9.054;2023-05-24T10:17:56;96582.16;;;14.47;100.00
2397;BME280;1209;48.410;9.054;2023-05-24T10:20:24;96575.78;;;14.35;100.00
2397;BME280;1209;48.410;9.054;2023-05-24T10:22:58;96578.53;;;14.06;100.00
2397;BME280;1209;48.410;9.054;2023-05-24T10:25:27;96580.47;;;14.18;100.00
2397;BME280;1209;48.410;9.054;2023-05-24T10:27:55;96579.16;;;14.08;100.00
2397;BME280;1209;48.410;9.054;2023-05-24T10:30:47;96582.03;;;14.13;100.00
2397;BME280;1209;48.410;9.054;2023-05-24T10:33:15;96573.16;;;14.14;100.00
2397;BME280;1209;48.410;9.054;2023-05-24T10:35:42;96575.53;;;14.30;100.00
2397;BME280;1209;48.410;9.054;2023-05-24T10:38:08;96583.16;;;14.04;100.00
2397;BME280;1209;48.410;9.054;2023-05-24T10:40:40;96579.34;;;13.85;100.00
2397;BME280;1209;48.410;9.054;2023-05-24T10:43:06;96586.91;;;13.73;100.00
2397;BME280;1209;48.410;9.054;2023-05-24T10:45:39;96580.31;;;13.63;100.00
2397;BME280;1209;48.410;9.054;2023-05-24T10:50:40;96590.88;;;13.69;100.00
2397;BME280;1209;48.410;9.054;2023-05-24T10:53:20;96582.81;;;13.49;100.00
2397;BME280;1209;48.410;9.054;2023-05-24T10:56:02;96584.03;;;13.32;100.00
2397;BME280;1209;48.410;9.054;2023-05-24T11:00:57;96581.44;;;13.53;100.00
2397;BME280;1209;48.410;9.054;2023-05-24T11:03:23;96575.19;;;13.54;100.00
2397;BME280;1209;48.410;9.054;2023-05-24T11:05:52;96577.75;;;13.69;100.00
2397;BME280;1209;48.410;9.054;2023-05-24T11:08:39;96578.50;;;13.63;100.00
2397;BME280;1209;48.410;9.054;2023-05-24T11:11:09;96571.66;;;13.83;100.00
2397;BME280;1209;48.410;9.054;2023-05-24T11:13:35;96579.38;;;13.70;100.00
2397;BME280;1209;48.410;9.054;2023-05-24T11:16:02;96571.81;;;13.61;100.00
2397;BME280;1209;48.410;9.054;2023-05-24T11:18:27;96570.56;;;13.57;100.00
2397;BME280;1209;48.410;9.054;2023-05-24T11:20:53;96568.44;;;13.45;100.00
2397;BME280;1209;48.410;9.054;2023-05-24T11:23:18;96571.31;;;13.50;100.00
2397;BME280;1209;48.410;9.054;2023-05-24T11:25:46;96574.38;;;13.54;100.00
2397;BME280;1209;48.410;9.054;2023-05-24T11:28:11;96580.91;;;13.43;100.00
2397;BME280;1209;48.410;9.054;2023-05-24T11:30:44;96580.31;;;13.27;100.00
2397;BME280;1209;48.410;9.054;2023-05-24T11:33:17;96586.47;;;13.34;100.00
2397;BME280;1209;48.410;9.054;2023-05-24T11:35:45;96580.38;;;13.48;100.00
2397;BME280;1209;48.410;9.054;2023-05-24T11:38:14;96587.66;;;13.31;100.00
2397;BME280;1209;48.410;9.054;2023-05-24T11:40:43;96582.00;;;13.49;100.00
2397;BME280;1209;48.410;9.054;2023-05-24T11:43:14;96581.63;;;13.52;100.00
2397;BME280;1209;48.410;9.054;2023-05-24T11:45:41;96575.56;;;13.51;100.00
2397;BME280;1209;48.410;9.054;2023-05-24T11:48:07;96579.47;;;13.41;100.00
2397;BME280;1209;48.410;9.054;2023-05-24T11:50:37;96578.38;;;13.71;100.00
2397;BME280;1209;48.410;9.054;2023-05-24T11:53:03;96579.38;;;13.49;100.00
2397;BME280;1209;48.410;9.054;2023-05-24T11:55:29;96577.03;;;13.39;100.00
2397;BME280;1209;48.410;9.054;2023-05-24T11:57:57;96581.03;;;13.35;100.00
2397;BME280;1209;48.410;9.054;2023-05-24T12:00:26;96574.63;;;13.59;100.00
2397;BME280;1209;48.410;9.054;2023-05-24T12:02:55;96569.72;;;13.35;100.00
2397;BME280;1209;48.410;9.054;2023-05-24T12:05:20;96571.66;;;13.26;100.00
2397;BME280;1209;48.410;9.054;2023-05-24T12:07:46;96566.28;;;13.19;100.00
2397;BME280;1209;48.410;9.054;2023-05-24T12:10:14;96568.72;;;13.21;100.00
2397;BME280;1209;48.410;9.054;2023-05-24T12:12:43;96564.22;;;13.30;100.00
2397;BME280;1209;48.410;9.054;2023-05-24T12:15:11;96572.78;;;13.23;100.00
2397;BME280;1209;48.410;9.054;2023-05-24T12:17:39;96561.47;;;13.38;100.00
2397;BME280;1209;48.410;9.054;2023-05-24T12:20:04;96562.00;;;13.48;100.00
2397;BME280;1209;48.410;9.054;2023-05-24T12:22:30;96562.56;;;13.65;100.00
2397;BME280;1209;48.410;9.054;2023-05-24T12:24:56;96560.88;;;13.57;100.00
2397;BME280;1209;48.410;9.054;2023-05-24T12:27:26;96562.25;;;13.53;100.00
2397;BME280;1209;48.410;9.054;2023-05-24T12:29:51;96566.69;;;13.52;100.00
2397;BME280;1209;48.410;9.054;2023-05-24T12:32:17;96570.63;;;13.63;100.00
2397;BME280;1209;48.410;9.054;2023-05-24T12:34:43;96572.81;;;13.60;100.00
2397;BME280;1209;48.410;9.054;2023-05-24T12:37:09;96573.25;;;13.63;100.00
2397;BME280;1209;48.410;9.054;2023-05-24T12:39:36;96564.16;;;13.80;100.00
2397;BME280;1209;48.410;9.054;2023-05-24T12:42:03;96565.81;;;13.67;100.00
2397;BME280;1209;48.410;9.054;2023-05-24T12:44:31;96554.63;;;13.58;100.00
2397;BME280;1209;48.410;9.054;2023-05-24T12:46:57;96561.81;;;13.49;100.00
2397;BME280;1209;48.410;9.054;2023-05-24T12:49:23;96563.09;;;13.39;100.00
2397;BME280;1209;48.410;9.054;2023-05-24T12:51:50;96558.56;;;13.69;100.00
2397;BME280;1209;48.410;9.054;2023-05-24T12:54:18;96560.38;;;13.47;100.00
2397;BME280;1209;48.410;9.054;2023-05-24T12:56:43;96564.38;;;13.43;100.00
2397;BME280;1209;48.410;9.054;2023-05-24T12:59:09;96559.94;;;13.65;100.00
2397;BME280;1209;48.410;9.054;2023-05-24T13:01:34;96565.13;;;13.58;100.00
2397;BME280;1209;48.410;9.054;2023-05-24T13:04:00;96572.88;;;13.45;100.00
2397;BME280;1209;48.410;9.054;2023-05-24T13:06:25;96564.50;;;13.56;100.00
2397;BME280;1209;48.410;9.054;2023-05-24T13:08:51;96571.66;;;13.83;100.00
2397;BME280;1209;48.410;9.054;2023-05-24T13:11:16;96564.97;;;13.81;100.00
2397;BME280;1209;48.410;9.054;2023-05-24T13:13:41;96568.41;;;13.81;100.00
2397;BME280;1209;48.410;9.054;2023-05-24T13:16:08;96566.28;;;14.13;100.00
2397;BME280;1209;48.410;9.054;2023-05-24T13:18:35;96572.09;;;13.87;100.00
2397;BME280;1209;48.410;9.054;2023-05-24T13:21:02;96567.25;;;14.33;100.00
2397;BME280;1209;48.410;9.054;2023-05-24T13:23:30;96568.34;;;14.67;100.00